Time;durP1;ratioP1;P1;durP2;ratioP2;P2;SDS_P1;SDS_P2;PMS_P1;PMS_P2;Temp;Humidity;BMP_temperature;BMP_pressure;BME280_temperature;BME280_humidity;BME280_pressure;Samples;Min_cycle;Max_cycle;Signal;HPM_P1;HPM_P2
2022/12/12 00:01:11;;;;;;;27.42;10.63;;;;;;;2.80;100.00;98153.28;4983087;28;20112;-57
2022/12/12 00:03:37;;;;;;;35.20;12.20;;;;;;;2.78;100.00;98143.03;4974121;28;20093;-55
2022/12/12 00:06:04;;;;;;;31.67;13.38;;;;;;;2.64;100.00;98127.19;4975007;28;20050;-57
2022/12/12 00:08:31;;;;;;;35.55;13.23;;;;;;;2.81;100.00;98142.13;4973772;28;20525;-55
2022/12/12 00:10:57;;;;;;;37.65;14.00;;;;;;;2.82;100.00;98125.88;4983642;28;20580;-55
2022/12/12 00:13:23;;;;;;;41.03;14.48;;;;;;;2.78;100.00;98144.78;4982800;28;20121;-53
2022/12/12 00:15:49;;;;;;;38.40;12.38;;;;;;;2.84;100.00;98127.47;4973107;28;20043;-53
2022/12/12 00:18:15;;;;;;;34.78;11.95;;;;;;;2.86;100.00;98136.00;4956470;28;20051;-53
2022/12/12 00:20:41;;;;;;;21.02;8.80;;;;;;;2.86;100.00;98147.97;4979049;28;20546;-55
2022/12/12 00:23:07;;;;;;;42.72;13.85;;;;;;;2.86;100.00;98130.84;4992288;28;20527;-56
2022/12/12 00:25:32;;;;;;;33.17;13.07;;;;;;;2.90;100.00;98136.75;4990423;28;20100;-55
2022/12/12 00:27:59;;;;;;;40.92;13.88;;;;;;;2.95;100.00;98137.44;4990397;28;20053;-54
2022/12/12 00:30:25;;;;;;;39.25;13.18;;;;;;;2.60;100.00;98083.72;4982402;28;20475;-56
2022/12/12 00:32:51;;;;;;;32.78;12.75;;;;;;;2.99;100.00;98150.13;4991202;28;20046;-54
2022/12/12 00:35:17;;;;;;;30.63;11.52;;;;;;;2.99;100.00;98133.91;4992979;28;20544;-58
2022/12/12 00:37:43;;;;;;;25.92;10.48;;;;;;;3.02;100.00;98148.38;4982127;28;20035;-54
2022/12/12 00:40:09;;;;;;;27.55;10.20;;;;;;;3.01;100.00;98144.97;4988638;28;20041;-56
2022/12/12 00:42:35;;;;;;;22.27;9.10;;;;;;;2.99;100.00;98144.16;4973138;28;20046;-52
2022/12/12 00:45:01;;;;;;;32.17;12.95;;;;;;;2.81;100.00;98109.63;4972239;28;20046;-54
2022/12/12 00:47:29;;;;;;;35.72;11.80;;;;;;;3.02;100.00;98128.69;4973260;28;20066;-51
2022/12/12 00:49:55;;;;;;;33.25;10.80;;;;;;;3.01;100.00;98136.44;4974208;28;20468;-55
2022/12/12 00:52:21;;;;;;;33.22;11.45;;;;;;;2.86;100.00;98104.34;4986153;28;20125;-53
2022/12/12 00:54:46;;;;;;;33.17;11.63;;;;;;;3.03;100.00;98122.69;4982847;28;20434;-51
2022/12/12 00:57:12;;;;;;;29.27;10.93;;;;;;;2.85;100.00;98087.28;4987236;28;20523;-54
2022/12/12 00:59:38;;;;;;;27.10;10.27;;;;;;;3.04;100.00;98139.75;4984327;28;20038;-53
2022/12/12 01:02:04;;;;;;;22.58;9.18;;;;;;;3.01;100.00;98121.88;4987451;28;20042;-51
2022/12/12 01:04:30;;;;;;;21.33;8.77;;;;;;;3.02;100.00;98125.28;4980107;28;20100;-55
2022/12/12 01:06:55;;;;;;;21.15;7.20;;;;;;;2.95;100.00;98133.16;4973679;28;20537;-51
2022/12/12 01:09:21;;;;;;;24.58;9.23;;;;;;;2.94;100.00;98100.66;4976458;28;20050;-51
2022/12/12 01:11:47;;;;;;;29.35;10.35;;;;;;;3.05;100.00;98132.88;4979257;28;20047;-48
2022/12/12 01:14:13;;;;;;;32.47;10.88;;;;;;;3.04;100.00;98126.91;4972292;28;20043;-53
2022/12/12 01:16:38;;;;;;;22.88;8.45;;;;;;;2.88;100.00;98116.25;4998157;28;20038;-50
2022/12/12 01:19:04;;;;;;;19.02;8.02;;;;;;;3.02;100.00;98123.56;4972622;28;20043;-54
2022/12/12 01:21:30;;;;;;;29.45;10.63;;;;;;;3.04;100.00;98111.50;4955960;28;20470;-51
2022/12/12 01:23:56;;;;;;;21.73;9.30;;;;;;;3.09;100.00;98134.50;4979002;28;20042;-55
2022/12/12 01:26:23;;;;;;;25.00;10.07;;;;;;;3.03;100.00;98130.38;4975116;28;20133;-53
2022/12/12 01:28:49;;;;;;;30.30;11.38;;;;;;;3.06;100.00;98127.72;4986743;28;20511;-57
2022/12/12 01:31:15;;;;;;;19.33;9.15;;;;;;;3.07;100.00;98147.38;4972165;28;20039;-52
2022/12/12 01:33:44;;;;;;;25.05;9.48;;;;;;;2.91;100.00;98112.75;4987786;28;20052;-50
2022/12/12 01:36:15;;;;;;;18.67;7.30;;;;;;;2.94;100.00;98133.19;4999088;28;20050;-52
2022/12/12 01:38:45;;;;;;;28.33;9.73;;;;;;;2.87;100.00;98100.91;4988221;28;20041;-53
2022/12/12 01:41:11;;;;;;;24.50;8.88;;;;;;;3.04;100.00;98139.75;4959866;28;20426;-54
2022/12/12 01:43:37;;;;;;;15.98;7.75;;;;;;;3.02;100.00;98126.13;4991350;28;20041;-54
2022/12/12 01:46:03;;;;;;;19.52;7.55;;;;;;;3.05;100.00;98155.97;4990514;28;20042;-52
2022/12/12 01:48:34;;;;;;;22.73;9.40;;;;;;;3.06;100.00;98144.84;4979091;28;20043;-54
2022/12/12 01:51:06;;;;;;;20.50;7.57;;;;;;;2.92;100.00;98099.06;5002122;28;20050;-51
2022/12/12 01:53:32;;;;;;;19.58;8.77;;;;;;;3.05;100.00;98131.16;4987071;28;20578;-52
2022/12/12 01:55:59;;;;;;;25.77;9.40;;;;;;;2.89;100.00;98107.66;4973461;28;20061;-56
2022/12/12 01:58:25;;;;;;;21.23;7.32;;;;;;;3.05;100.00;98138.84;4988085;28;20046;-52
2022/12/12 02:00:51;;;;;;;20.40;8.05;;;;;;;3.05;100.00;98126.03;4989044;28;20042;-52
2022/12/12 02:03:17;;;;;;;19.10;8.68;;;;;;;3.07;100.00;98131.97;4988037;28;20144;-52
2022/12/12 02:05:50;;;;;;;29.10;10.23;;;;;;;3.09;100.00;98139.63;4972611;28;20070;-54
2022/12/12 02:08:19;;;;;;;22.27;8.05;;;;;;;2.96;100.00;98123.72;4971047;28;20045;-53
2022/12/12 02:10:45;;;;;;;28.58;9.35;;;;;;;3.11;100.00;98137.84;4985083;28;20050;-54
2022/12/12 02:13:14;;;;;;;21.48;8.02;;;;;;;3.11;100.00;98133.56;4971936;28;20052;-53
2022/12/12 02:15:43;;;;;;;18.85;7.95;;;;;;;2.96;100.00;98113.47;4986643;28;20042;-52
2022/12/12 02:18:21;;;;;;;19.67;7.78;;;;;;;2.72;100.00;98084.19;4988816;28;20514;-52
2022/12/12 02:21:04;;;;;;;18.67;7.75;;;;;;;3.10;100.00;98138.72;4951760;28;20050;-50
2022/12/12 02:24:15;;;;;;;20.90;7.97;;;;;;;3.12;100.00;98140.38;4970565;28;20113;-50
2022/12/12 02:27:00;;;;;;;25.02;8.70;;;;;;;3.14;100.00;98151.41;4968503;28;20042;-52
2022/12/12 02:29:53;;;;;;;19.50;8.13;;;;;;;3.07;100.00;98139.66;4972628;28;20039;-54
2022/12/12 02:32:39;;;;;;;21.90;6.75;;;;;;;3.12;100.00;98140.38;4971288;28;20094;-54
2022/12/12 02:35:40;;;;;;;18.35;7.57;;;;;;;3.14;100.00;98150.59;4965672;28;20046;-53
2022/12/12 02:38:27;;;;;;;16.35;6.70;;;;;;;2.94;100.00;98110.94;4957232;28;20144;-49
2022/12/12 02:41:14;;;;;;;22.48;8.18;;;;;;;3.11;100.00;98141.25;4971005;28;20043;-54
2022/12/12 02:43:53;;;;;;;16.50;7.13;;;;;;;3.09;100.00;98153.28;4983615;28;20471;-53
2022/12/12 02:46:39;;;;;;;15.88;7.03;;;;;;;3.11;100.00;98143.81;4997557;28;20065;-53
2022/12/12 02:49:09;;;;;;;18.25;7.40;;;;;;;2.95;100.00;98116.91;4981601;28;20038;-50
2022/12/12 02:51:34;;;;;;;;;;;;;;;2.97;100.00;98130.56;4988435;28;20042;-52
2022/12/12 02:54:03;;;;;;;13.65;6.15;;;;;;;3.08;100.00;98145.66;4974955;28;19924;-54
2022/12/12 02:56:44;;;;;;;15.57;6.60;;;;;;;3.12;100.00;98139.53;4970776;28;20066;-52
2022/12/12 02:59:35;;;;;;;18.48;6.88;;;;;;;3.17;100.00;98153.91;4981698;28;20069;-56
2022/12/12 03:02:10;;;;;;;14.20;5.78;;;;;;;3.18;100.00;98150.47;4981807;28;20100;-55
2022/12/12 03:08:03;;;;;;;16.40;6.85;;;;;;;3.19;100.00;98147.00;4970704;28;20074;-53
2022/12/12 03:10:46;;;;;;;21.77;7.90;;;;;;;3.20;100.00;98158.94;4970865;28;20562;-54
2022/12/12 03:13:32;;;;;;;18.90;6.65;;;;;;;3.19;100.00;98157.25;4971542;28;20116;-52
2022/12/12 03:16:19;;;;;;;20.17;8.32;;;;;;;3.20;100.00;98170.94;4982924;28;20070;-49
2022/12/12 03:19:00;;;;;;;19.88;7.78;;;;;;;3.23;100.00;98164.00;4977037;28;20520;-51
2022/12/12 03:21:32;;;;;;;18.63;7.28;;;;;;;3.23;100.00;98169.16;4979511;28;20053;-54
2022/12/12 03:24:03;;;;;;;16.40;8.23;;;;;;;3.24;100.00;98170.84;4989306;28;20042;-51
2022/12/12 03:26:34;;;;;;;15.05;6.47;;;;;;;3.28;100.00;98172.41;4989106;28;20081;-49
2022/12/12 03:29:15;;;;;;;17.83;6.75;;;;;;;3.26;100.00;98160.50;4987818;28;20427;-52
2022/12/12 03:31:44;;;;;;;18.73;6.72;;;;;;;3.26;100.00;98156.22;4969447;28;20038;-54
2022/12/12 03:34:18;;;;;;;22.52;8.45;;;;;;;3.28;100.00;98146.75;4970575;28;20038;-54
2022/12/12 03:36:49;;;;;;;13.55;5.30;;;;;;;3.25;100.00;98156.25;4984995;28;20506;-55
2022/12/12 03:39:53;;;;;;;16.58;6.93;;;;;;;3.30;100.00;98169.78;4986226;28;20141;-52
2022/12/12 03:42:26;;;;;;;23.48;5.53;;;;;;;3.27;100.00;98162.19;4982451;28;20509;-55
2022/12/12 03:45:06;;;;;;;19.30;7.95;;;;;;;3.20;100.00;98140.13;4979793;28;20074;-52
2022/12/12 03:47:40;;;;;;;11.43;5.75;;;;;;;3.31;100.00;98154.34;4969192;28;20181;-52
2022/12/12 03:50:15;;;;;;;13.60;6.05;;;;;;;3.15;100.00;98122.28;4979886;28;20037;-52
2022/12/12 03:53:08;;;;;;;14.02;5.78;;;;;;;3.34;100.00;98164.53;4969190;28;20042;-50
2022/12/12 03:55:40;;;;;;;11.93;4.60;;;;;;;3.33;100.00;98155.16;4952740;28;20524;-53
2022/12/12 03:58:20;;;;;;;13.73;6.35;;;;;;;3.33;100.00;98152.59;4970388;28;20043;-54
2022/12/12 04:00:48;;;;;;;15.70;6.72;;;;;;;3.37;100.00;98161.88;4985132;28;20039;-54
2022/12/12 04:03:40;;;;;;;12.63;5.75;;;;;;;3.36;100.00;98172.19;4988405;28;20046;-53
2022/12/12 04:06:30;;;;;;;15.38;6.68;;;;;;;3.37;100.00;98174.72;4978635;28;20074;-54
2022/12/12 04:14:50;;;;;;;19.13;7.45;;;;;;;3.42;100.00;98170.28;4973833;28;20046;-55
2022/12/12 04:17:17;;;;;;;11.60;4.93;;;;;;;3.43;100.00;98163.41;4970013;28;20050;-51
2022/12/12 04:28:55;;;;;;;17.73;5.80;;;;;;;3.41;100.00;98158.31;4981743;28;20038;-53
2022/12/12 04:31:23;;;;;;;11.32;5.22;;;;;;;3.45;100.00;98161.66;4971891;28;20069;-54
2022/12/12 04:33:50;;;;;;;16.33;6.15;;;;;;;3.44;100.00;98167.66;4973561;28;20562;-54
2022/12/12 04:36:17;;;;;;;16.17;6.55;;;;;;;3.43;100.00;98165.97;4996967;28;20133;-50
2022/12/12 04:38:46;;;;;;;13.57;6.25;;;;;;;3.42;100.00;98161.72;4990470;28;20145;-53
2022/12/12 04:41:14;;;;;;;12.13;5.55;;;;;;;3.46;100.00;98167.59;4990469;28;20065;-53
2022/12/12 04:43:42;;;;;;;13.52;5.60;;;;;;;3.46;100.00;98168.44;4986572;28;20502;-54
2022/12/12 04:46:12;;;;;;;11.20;4.85;;;;;;;3.45;100.00;98161.66;4974324;28;20442;-51
2022/12/12 04:48:45;;;;;;;12.65;5.53;;;;;;;3.46;100.00;98167.59;4974107;28;20457;-51
2022/12/12 04:51:15;;;;;;;12.23;6.25;;;;;;;3.48;100.00;98169.25;4991458;28;20125;-48
2022/12/12 04:53:44;;;;;;;;;;;;;;;3.49;100.00;98160.66;4990943;28;20041;-51
2022/12/12 04:56:12;;;;;;;8.73;4.82;;;;;;;3.15;100.00;98106.06;4990546;28;19929;-50
2022/12/12 04:58:52;;;;;;;13.25;5.28;;;;;;;3.28;100.00;98131.34;5126875;27;20385;-49
2022/12/12 05:01:29;;;;;;;13.80;6.72;;;;;;;3.39;100.00;98142.13;5109887;27;20043;-51
2022/12/12 05:04:07;;;;;;;15.60;6.30;;;;;;;3.53;100.00;98163.97;5119581;28;20043;-53
2022/12/12 05:06:38;;;;;;;14.20;6.80;;;;;;;3.55;100.00;98152.78;5105128;28;20566;-60
2022/12/12 05:09:05;;;;;;;12.38;6.25;;;;;;;3.55;100.00;98145.06;5117078;27;20039;-56
2022/12/12 05:11:32;;;;;;;10.40;4.43;;;;;;;3.56;100.00;98157.00;5074019;28;20063;-62
2022/12/12 05:13:58;;;;;;;13.15;6.50;;;;;;;3.57;100.00;98165.56;5104004;28;20044;-61
2022/12/12 05:16:34;;;;;;;14.57;7.53;;;;;;;3.59;100.00;98166.34;5093877;28;20039;-61
2022/12/12 05:19:00;;;;;;;14.23;6.50;;;;;;;3.61;100.00;98169.72;5103479;28;20039;-64
2022/12/12 05:21:26;;;;;;;13.13;6.45;;;;;;;3.61;100.00;98167.16;5109361;28;20046;-59
2022/12/12 05:23:52;;;;;;;10.27;5.00;;;;;;;3.63;100.00;98167.94;5104794;28;20119;-60
2022/12/12 05:26:22;;;;;;;13.18;5.60;;;;;;;3.60;100.00;98173.19;5103035;28;20502;-53
2022/12/12 05:28:47;;;;;;;;;;;;;;;3.60;100.00;98193.75;5092374;28;20046;-56
2022/12/12 05:31:13;;;;;;;9.60;4.90;;;;;;;3.57;100.00;98176.66;5126629;28;20310;-62
2022/12/12 05:33:40;;;;;;;8.43;4.65;;;;;;;3.56;100.00;98172.41;5122432;28;20035;-60
2022/12/12 05:36:06;;;;;;;9.85;5.00;;;;;;;3.41;100.00;98153.19;5117691;27;20143;-61
2022/12/12 05:38:33;;;;;;;12.02;6.75;;;;;;;3.61;100.00;98164.59;5108336;28;20698;-56
2022/12/12 05:40:59;;;;;;;14.70;6.25;;;;;;;3.64;100.00;98172.19;5114514;28;20502;-58
2022/12/12 05:43:28;;;;;;;;;;;;;;;3.63;100.00;98176.50;5093308;28;20515;-56
2022/12/12 05:45:54;;;;;;;9.93;5.38;;;;;;;3.63;100.00;98175.66;5104333;28;19930;-57
2022/12/12 05:48:20;;;;;;;12.15;6.20;;;;;;;3.63;100.00;98175.66;5106112;28;20582;-57
2022/12/12 05:50:45;;;;;;;38.70;13.80;;;;;;;3.56;100.00;98169.84;5085204;28;20059;-58
2022/12/12 05:53:12;;;;;;;14.45;6.15;;;;;;;3.66;100.00;98183.28;5089914;28;20039;-57
2022/12/12 05:55:38;;;;;;;12.52;4.97;;;;;;;3.63;100.00;98196.19;5105007;28;20089;-58
2022/12/12 05:58:04;;;;;;;6.97;4.00;;;;;;;3.64;100.00;98193.59;5107589;28;20052;-57
2022/12/12 06:00:30;;;;;;;10.13;5.63;;;;;;;3.62;100.00;98184.25;5107966;28;20047;-58
2022/12/12 06:02:56;;;;;;;8.55;4.57;;;;;;;3.65;100.00;98187.56;5126539;27;20039;-57
2022/12/12 06:05:22;;;;;;;6.97;4.15;;;;;;;3.63;100.00;98194.47;5118856;27;20050;-58
2022/12/12 06:07:48;;;;;;;13.15;5.25;;;;;;;3.56;100.00;98190.41;5104273;28;20032;-57
2022/12/12 06:10:15;;;;;;;9.60;5.05;;;;;;;3.55;100.00;98195.59;5092153;28;20040;-57
2022/12/12 06:12:40;;;;;;;8.52;4.70;;;;;;;3.38;100.00;98176.41;5090558;28;20040;-55
2022/12/12 06:15:06;;;;;;;9.25;5.00;;;;;;;3.38;100.00;98173.84;5092292;28;20058;-57
2022/12/12 06:17:33;;;;;;;9.55;4.38;;;;;;;3.52;100.00;98191.38;5091515;28;20036;-56
2022/12/12 06:19:59;;;;;;;12.77;5.45;;;;;;;3.52;100.00;98193.97;5091859;28;20040;-56
2022/12/12 06:22:26;;;;;;;10.98;4.88;;;;;;;3.57;100.00;98197.22;5091790;28;20443;-57
2022/12/12 06:24:52;;;;;;;10.70;4.93;;;;;;;3.55;100.00;98196.44;5091809;28;20056;-54
2022/12/12 06:27:18;;;;;;;11.43;4.82;;;;;;;3.54;100.00;98194.75;5091681;28;20036;-57
2022/12/12 06:29:44;;;;;;;8.30;4.75;;;;;;;3.52;100.00;98188.81;5099369;28;20035;-58
2022/12/12 06:32:10;;;;;;;11.25;5.00;;;;;;;3.52;100.00;98178.53;5091281;28;20028;-58
2022/12/12 06:34:39;;;;;;;7.65;4.53;;;;;;;3.55;100.00;98186.19;5090441;28;20808;-57
2022/12/12 06:37:08;;;;;;;11.90;5.55;;;;;;;3.55;100.00;98190.47;5090253;28;20036;-56
2022/12/12 06:39:34;;;;;;;12.63;5.75;;;;;;;3.55;100.00;98198.19;5065549;28;20430;-58
2022/12/12 06:42:00;;;;;;;10.07;5.55;;;;;;;3.53;100.00;98193.06;5110589;28;20035;-55
2022/12/12 06:44:25;;;;;;;9.57;4.78;;;;;;;3.54;100.00;98199.06;5102348;28;20043;-56
2022/12/12 06:46:51;;;;;;;11.23;4.95;;;;;;;3.54;100.00;98204.19;5089774;28;20135;-55
2022/12/12 06:49:17;;;;;;;10.77;5.25;;;;;;;3.55;100.00;98198.19;5090136;28;20135;-58
2022/12/12 06:51:43;;;;;;;7.80;4.50;;;;;;;3.57;100.00;98206.66;5102637;28;20043;-56
2022/12/12 06:54:13;;;;;;;10.50;4.47;;;;;;;3.55;100.00;98205.88;5111197;28;20100;-57
2022/12/12 06:56:38;;;;;;;;;;;;;;;3.56;100.00;98218.66;5110023;28;20039;-56
2022/12/12 06:59:04;;;;;;;6.35;3.75;;;;;;;3.40;100.00;98191.78;5099480;28;19937;-58
2022/12/12 07:01:30;;;;;;;9.88;4.63;;;;;;;3.27;100.00;98170.72;5090829;28;20127;-55
2022/12/12 07:03:57;;;;;;;9.32;4.80;;;;;;;3.49;100.00;98209.47;5123961;27;20098;-58
2022/12/12 07:06:23;;;;;;;9.45;4.80;;;;;;;3.49;100.00;98193.22;5091157;28;20538;-55
2022/12/12 07:08:50;;;;;;;14.02;5.32;;;;;;;3.50;100.00;98192.34;5091054;28;20040;-58
2022/12/12 07:11:20;;;;;;;11.38;4.63;;;;;;;3.49;100.00;98194.06;5090924;28;20323;-57
2022/12/12 07:13:46;;;;;;;11.73;5.55;;;;;;;3.54;100.00;98217.03;5089382;28;20097;-55
2022/12/12 07:16:12;;;;;;;10.32;5.03;;;;;;;3.54;100.00;98217.88;5074033;28;20086;-53
2022/12/12 07:18:38;;;;;;;14.57;6.28;;;;;;;3.57;100.00;98220.34;5052264;28;20446;-56
2022/12/12 07:21:05;;;;;;;13.35;6.05;;;;;;;3.57;100.00;98211.78;5104919;28;20067;-58
2022/12/12 07:23:32;;;;;;;13.00;6.70;;;;;;;3.53;100.00;98202.50;5109878;28;20047;-58
2022/12/12 07:25:58;;;;;;;15.40;6.57;;;;;;;3.54;100.00;98206.75;5091929;28;20585;-57
2022/12/12 07:28:24;;;;;;;16.48;6.85;;;;;;;3.53;100.00;98202.50;5090095;28;20066;-53
2022/12/12 07:30:50;;;;;;;13.68;5.47;;;;;;;3.52;100.00;98231.66;5068775;28;20519;-56
2022/12/12 07:33:16;;;;;;;11.40;5.30;;;;;;;3.50;100.00;98212.88;5069832;28;20098;-54
2022/12/12 07:35:43;;;;;;;11.68;4.97;;;;;;;3.33;100.00;98191.09;5069677;28;20130;-58
2022/12/12 07:38:10;;;;;;;15.60;7.43;;;;;;;3.50;100.00;98213.72;5079943;28;20509;-58
2022/12/12 07:40:36;;;;;;;12.23;6.70;;;;;;;3.54;100.00;98217.03;5100105;28;20067;-55
2022/12/12 07:43:03;;;;;;;16.73;7.65;;;;;;;3.53;100.00;98202.50;5110644;28;20040;-59
2022/12/12 07:45:29;;;;;;;15.57;7.07;;;;;;;3.54;100.00;98242.72;5101165;28;20040;-59
2022/12/12 07:47:55;;;;;;;15.75;7.53;;;;;;;3.28;100.00;98171.56;5089026;28;20051;-57
2022/12/12 07:50:21;;;;;;;18.55;8.02;;;;;;;3.52;100.00;98213.66;5090379;28;20404;-55
2022/12/12 07:52:47;;;;;;;14.75;7.13;;;;;;;3.41;100.00;98201.97;5089325;28;20048;-57
2022/12/12 07:55:13;;;;;;;14.68;6.85;;;;;;;3.55;100.00;98211.88;5088589;28;20101;-54
2022/12/12 07:57:40;;;;;;;15.02;7.10;;;;;;;3.37;100.00;98184.13;5089651;28;20054;-56
2022/12/12 08:00:14;;;;;;;12.63;6.10;;;;;;;3.56;100.00;98215.28;5092288;28;20206;-58
2022/12/12 08:02:40;;;;;;;17.65;6.95;;;;;;;3.60;100.00;98211.72;5110265;28;20043;-57
2022/12/12 08:05:06;;;;;;;17.00;7.55;;;;;;;3.58;100.00;98216.91;5100586;28;20526;-57
2022/12/12 08:07:32;;;;;;;14.75;7.88;;;;;;;3.48;100.00;98194.94;5112425;27;20534;-56
2022/12/12 08:09:58;;;;;;;12.77;5.75;;;;;;;3.54;100.00;98207.59;5088085;28;20514;-55
2022/12/12 08:12:24;;;;;;;13.82;7.35;;;;;;;3.56;100.00;98210.94;5088559;28;20036;-56
2022/12/12 08:14:50;;;;;;;17.83;7.13;;;;;;;3.53;100.00;98205.91;5084295;28;20032;-55
2022/12/12 08:17:16;;;;;;;18.83;6.93;;;;;;;3.54;100.00;98215.31;5100201;28;20035;-55
2022/12/12 08:19:41;;;;;;;17.80;7.38;;;;;;;3.51;100.00;98214.56;5088174;28;20120;-55
2022/12/12 08:22:07;;;;;;;15.32;6.63;;;;;;;3.60;100.00;98215.13;5090823;28;20044;-54
2022/12/12 08:24:33;;;;;;;17.45;8.52;;;;;;;3.42;100.00;98197.69;5089256;28;20032;-57
2022/12/12 08:26:59;;;;;;;18.73;8.00;;;;;;;3.59;100.00;98217.75;5089327;28;20043;-57
2022/12/12 08:29:25;;;;;;;17.00;8.30;;;;;;;3.59;100.00;98225.44;5089188;28;20090;-55
2022/12/12 08:31:51;;;;;;;17.23;8.02;;;;;;;3.63;100.00;98221.91;5101988;28;20043;-57
2022/12/12 08:34:17;;;;;;;18.40;8.30;;;;;;;3.63;100.00;98227.03;5079133;28;20043;-60
2022/12/12 08:36:44;;;;;;;18.08;8.35;;;;;;;3.58;100.00;98213.47;5089041;28;20470;-57
2022/12/12 08:39:11;;;;;;;22.67;8.48;;;;;;;3.63;100.00;98233.03;5089167;28;20081;-56
2022/12/12 08:41:39;;;;;;;20.98;7.70;;;;;;;3.60;100.00;98245.97;5088265;28;20051;-58
2022/12/12 08:44:06;;;;;;;21.05;9.02;;;;;;;3.60;100.00;98235.69;5089514;28;20412;-57
2022/12/12 08:46:32;;;;;;;20.35;8.15;;;;;;;3.63;100.00;98243.28;5096127;28;20427;-57
2022/12/12 08:48:58;;;;;;;22.90;9.88;;;;;;;3.60;100.00;98228.00;5090086;28;20035;-53
2022/12/12 08:51:24;;;;;;;17.30;8.95;;;;;;;3.39;100.00;98208.91;5095596;28;20135;-58
2022/12/12 08:53:51;;;;;;;22.48;10.27;;;;;;;3.62;100.00;98233.06;5109525;28;20087;-56
2022/12/12 08:56:20;;;;;;;19.90;8.85;;;;;;;3.44;100.00;98206.19;5108222;28;20061;-54
2022/12/12 08:58:46;;;;;;;21.85;9.50;;;;;;;3.61;100.00;98241.69;5109314;28;20523;-55
2022/12/12 09:01:20;;;;;;;21.83;10.35;;;;;;;3.36;100.00;98190.16;5090931;28;20044;-56
2022/12/12 09:03:47;;;;;;;22.80;9.63;;;;;;;3.59;100.00;98222.88;5103961;28;20048;-59
2022/12/12 09:06:13;;;;;;;19.45;9.43;;;;;;;3.60;100.00;98233.13;5071060;28;20440;-59
2022/12/12 09:08:39;;;;;;;19.40;10.00;;;;;;;3.59;100.00;98238.31;5089028;28;20368;-56
2022/12/12 09:11:06;;;;;;;24.60;10.57;;;;;;;3.64;100.00;98234.72;5091081;28;20036;-58
2022/12/12 09:13:33;;;;;;;22.30;9.65;;;;;;;3.66;100.00;98230.38;5105078;28;20059;-57
2022/12/12 09:15:59;;;;;;;20.85;9.50;;;;;;;3.63;100.00;98240.72;5063766;28;20063;-59
2022/12/12 09:18:25;;;;;;;20.75;6.93;;;;;;;3.62;100.00;98251.03;5088525;28;20044;-59
2022/12/12 09:20:56;;;;;;;19.13;8.48;;;;;;;3.59;100.00;98244.28;5087589;28;20071;-56
2022/12/12 09:23:23;;;;;;;20.77;9.38;;;;;;;3.42;100.00;98210.53;5088848;28;20492;-57
2022/12/12 09:25:49;;;;;;;19.30;7.78;;;;;;;3.59;100.00;98257.13;5088530;28;20143;-58
2022/12/12 09:28:16;;;;;;;18.95;9.07;;;;;;;3.61;100.00;98242.50;5087043;28;20115;-60
2022/12/12 09:30:43;;;;;;;27.77;10.82;;;;;;;3.65;100.00;98246.69;5088373;28;20590;-59
2022/12/12 09:33:10;;;;;;;17.67;8.38;;;;;;;3.64;100.00;98241.56;5102762;28;20105;-58
2022/12/12 09:35:36;;;;;;;24.23;10.20;;;;;;;3.64;100.00;98239.00;5107509;28;20066;-58
2022/12/12 09:38:02;;;;;;;20.45;9.38;;;;;;;3.63;100.00;98234.75;5096475;28;20051;-57
2022/12/12 09:40:35;;;;;;;21.80;9.30;;;;;;;3.63;100.00;98243.28;5088470;28;20093;-59
2022/12/12 09:43:01;;;;;;;21.25;9.23;;;;;;;3.59;100.00;98226.28;5100722;28;20040;-60
2022/12/12 09:45:28;;;;;;;23.77;10.52;;;;;;;3.61;100.00;98232.22;5112449;28;20048;-59
2022/12/12 09:47:57;;;;;;;21.23;9.15;;;;;;;3.61;100.00;98234.78;5082854;28;20410;-57
2022/12/12 09:50:26;;;;;;;18.00;8.70;;;;;;;3.60;100.00;98238.25;5092491;28;20043;-60
2022/12/12 09:52:54;;;;;;;23.50;10.02;;;;;;;3.59;100.00;98243.44;5091066;28;20757;-59
2022/12/12 09:55:46;;;;;;;20.55;8.90;;;;;;;3.63;100.00;98221.91;5090850;28;20044;-59
2022/12/12 09:58:27;;;;;;;27.85;10.48;;;;;;;3.64;100.00;98223.59;5070698;28;20189;-60
2022/12/12 10:01:22;;;;;;;21.67;7.97;;;;;;;3.61;100.00;98221.94;5071867;28;20128;-57
2022/12/12 10:03:59;;;;;;;22.48;9.98;;;;;;;3.63;100.00;98238.16;5034894;28;20156;-57
2022/12/12 10:06:30;;;;;;;21.25;8.90;;;;;;;3.63;100.00;98219.31;5112440;28;20043;-59
2022/12/12 10:08:59;;;;;;;18.65;8.63;;;;;;;3.62;100.00;98238.19;5094260;28;20035;-59
2022/12/12 10:11:49;;;;;;;24.60;9.90;;;;;;;3.57;100.00;98209.22;5110823;28;20039;-59
2022/12/12 10:14:18;;;;;;;20.30;9.27;;;;;;;3.61;100.00;98227.06;5075964;28;20052;-57
2022/12/12 10:16:45;;;;;;;17.00;7.50;;;;;;;3.42;100.00;98179.72;5090224;28;20031;-57
2022/12/12 10:19:24;;;;;;;22.63;10.30;;;;;;;3.61;100.00;98211.66;5108357;28;20488;-54
2022/12/12 10:21:51;;;;;;;;;;;;;;;3.63;100.00;98217.59;5111429;28;20039;-56
2022/12/12 10:24:30;;;;;;;18.95;9.07;;;;;;;3.58;100.00;98227.19;5074216;28;19968;-58
2022/12/12 10:26:57;;;;;;;21.58;10.75;;;;;;;3.56;100.00;98223.78;5090144;28;20134;-58
2022/12/12 10:29:25;;;;;;;28.58;11.48;;;;;;;3.42;100.00;98192.56;5091365;28;20131;-59
2022/12/12 10:31:53;;;;;;;25.77;10.07;;;;;;;3.59;100.00;98217.75;5091529;28;20491;-57
2022/12/12 10:34:44;;;;;;;30.70;11.50;;;;;;;3.61;100.00;98209.09;5108422;28;20043;-54
2022/12/12 10:37:19;;;;;;;24.48;11.05;;;;;;;3.60;100.00;98211.72;5108241;27;20581;-55
2022/12/12 10:40:12;;;;;;;30.83;11.75;;;;;;;3.53;100.00;98202.50;5101293;28;20383;-56
2022/12/12 10:42:53;;;;;;;23.83;11.43;;;;;;;3.60;100.00;98229.72;5090190;28;20084;-55
2022/12/12 10:45:34;;;;;;;33.55;13.63;;;;;;;3.61;100.00;98245.06;5071294;28;20044;-59
2022/12/12 10:48:01;;;;;;;23.35;10.15;;;;;;;3.60;100.00;98216.88;5075703;28;20035;-58
2022/12/12 10:50:36;;;;;;;25.85;12.15;;;;;;;3.40;100.00;98166.09;5090034;28;20040;-55
2022/12/12 10:53:03;;;;;;;25.10;10.90;;;;;;;3.61;100.00;98219.38;5090126;28;20047;-56
2022/12/12 10:55:36;;;;;;;22.45;9.60;;;;;;;3.61;100.00;98213.41;5090866;28;20051;-60
2022/12/12 10:58:03;;;;;;;18.50;10.13;;;;;;;3.63;100.00;98225.31;5089542;28;20185;-55
2022/12/12 11:00:38;;;;;;;23.48;11.32;;;;;;;3.36;100.00;98167.03;5123953;27;20523;-58
2022/12/12 11:03:12;;;;;;;30.50;13.10;;;;;;;3.63;100.00;98209.06;5089993;28;20044;-56
2022/12/12 11:05:40;;;;;;;30.50;11.50;;;;;;;3.68;100.00;98222.59;5091205;28;20036;-57
2022/12/12 11:08:21;;;;;;;26.73;11.27;;;;;;;3.65;100.00;98220.13;5090931;28;20127;-60
2022/12/12 11:11:13;;;;;;;31.20;12.93;;;;;;;3.64;100.00;98216.72;5095240;28;20040;-57
2022/12/12 11:13:49;;;;;;;22.60;10.02;;;;;;;3.39;100.00;98166.97;5126634;27;20126;-58
2022/12/12 11:16:25;;;;;;;25.20;11.45;;;;;;;3.63;100.00;98212.47;5036715;28;20044;-57
2022/12/12 11:19:04;;;;;;;26.98;10.90;;;;;;;3.62;100.00;98218.47;5083040;28;20031;-61
2022/12/12 11:21:35;;;;;;;29.40;12.30;;;;;;;3.46;100.00;98198.44;5107648;28;20039;-59
2022/12/12 11:24:08;;;;;;;24.80;11.60;;;;;;;3.37;100.00;98177.28;5089255;28;20427;-59
2022/12/12 11:27:04;;;;;;;26.05;11.57;;;;;;;3.59;100.00;98198.03;5055608;28;20108;-60
2022/12/12 11:29:39;;;;;;;27.45;10.43;;;;;;;3.62;100.00;98204.78;5084455;28;20487;-56
2022/12/12 11:32:13;;;;;;;33.28;11.85;;;;;;;3.63;100.00;98198.78;5110736;28;20035;-56
2022/12/12 11:34:44;;;;;;;23.20;9.27;;;;;;;3.61;100.00;98198.81;5097252;28;20063;-56
2022/12/12 11:37:22;;;;;;;34.40;14.18;;;;;;;3.43;100.00;98173.69;5084795;28;20074;-56
2022/12/12 11:39:50;;;;;;;33.03;14.52;;;;;;;3.55;100.00;98199.03;5068611;28;20047;-57
2022/12/12 11:42:28;;;;;;;30.85;13.82;;;;;;;3.57;100.00;98196.38;5118977;27;20040;-56
2022/12/12 11:45:14;;;;;;;35.83;14.38;;;;;;;3.53;100.00;98197.38;5110609;28;20050;-59
2022/12/12 11:47:42;;;;;;;40.63;15.50;;;;;;;3.53;100.00;98199.94;5074534;28;20041;-60
2022/12/12 11:50:24;;;;;;;45.28;15.15;;;;;;;3.50;100.00;98210.31;5128579;27;20051;-60
2022/12/12 11:53:02;;;;;;;37.88;16.00;;;;;;;3.44;100.00;98201.06;5088936;28;20515;-58
2022/12/12 11:55:40;;;;;;;33.03;14.00;;;;;;;3.49;100.00;98209.47;5088544;28;20126;-57
2022/12/12 11:58:31;;;;;;;34.92;15.40;;;;;;;3.32;100.00;98171.44;5089595;28;20474;-58